Time;durP1;ratioP1;P1;durP2;ratioP2;P2;SDS_P1;SDS_P2;PMS_P1;PMS_P2;Temp;Humidity;BMP_temperature;BMP_pressure;BME280_temperature;BME280_humidity;BME280_pressure;Samples;Min_cycle;Max_cycle;Signal;HPM_P1;HPM_P2
2022/07/01 00:00:23;;;;;;;0.95;0.30;;;20.50;57.80;;;;;;2311326;54;20925;-74
2022/07/01 00:02:50;;;;;;;0.85;0.30;;;20.50;57.80;;;;;;2550501;54;21376;-73
2022/07/01 00:05:16;;;;;;;1.48;0.40;;;20.50;57.70;;;;;;2455948;54;21471;-74
2022/07/01 00:07:42;;;;;;;1.00;0.30;;;20.40;57.80;;;;;;2312964;54;21001;-73
2022/07/01 00:10:09;;;;;;;2.58;0.40;;;20.30;57.80;;;;;;2311273;54;20905;-75
2022/07/01 00:12:35;;;;;;;0.70;0.30;;;20.40;58.00;;;;;;2311580;54;20921;-74
2022/07/01 00:15:01;;;;;;;0.68;0.25;;;20.40;58.10;;;;;;2311044;54;20917;-74
2022/07/01 00:17:27;;;;;;;1.15;0.28;;;20.40;58.00;;;;;;2310401;54;20983;-74
2022/07/01 00:19:54;;;;;;;2.05;0.40;;;20.40;58.00;;;;;;2321862;54;21069;-75
2022/07/01 00:22:20;;;;;;;0.40;0.20;;;20.40;58.00;;;;;;2473108;54;20985;-76
2022/07/01 00:24:48;;;;;;;0.88;0.30;;;20.40;58.00;;;;;;2476686;54;21437;-75
2022/07/01 00:27:15;;;;;;;0.37;0.28;;;20.40;58.10;;;;;;2316876;54;20942;-74
2022/07/01 00:29:41;;;;;;;1.27;0.20;;;20.40;58.20;;;;;;2312038;54;20945;-73
2022/07/01 00:32:09;;;;;;;0.98;0.40;;;20.40;58.10;;;;;;2442150;54;20913;-77
2022/07/01 00:34:35;;;;;;;0.60;0.30;;;20.40;58.10;;;;;;2554171;54;21050;-75
2022/07/01 00:37:01;;;;;;;0.32;0.20;;;20.30;58.00;;;;;;2325063;54;21005;-73
2022/07/01 00:39:31;;;;;;;0.65;0.20;;;20.30;58.10;;;;;;2311007;54;21444;-73
2022/07/01 00:42:01;;;;;;;0.70;0.30;;;20.30;58.10;;;;;;2310326;54;21013;-76
2022/07/01 00:44:27;;;;;;;0.77;0.30;;;20.30;58.20;;;;;;2315900;54;21575;-74
2022/07/01 00:46:54;;;;;;;0.62;0.30;;;20.30;58.20;;;;;;2310502;54;21588;-75
2022/07/01 00:49:20;;;;;;;0.60;0.30;;;20.30;58.30;;;;;;2310603;54;20913;-73
2022/07/01 00:51:47;;;;;;;0.65;0.30;;;20.30;58.30;;;;;;2316442;54;20938;-75
2022/07/01 00:54:13;;;;;;;0.30;0.20;;;20.30;58.30;;;;;;2312152;54;20964;-74
2022/07/01 00:56:40;;;;;;;0.70;0.30;;;20.30;58.40;;;;;;2507287;54;21053;-75
2022/07/01 00:59:06;;;;;;;1.20;0.40;;;20.20;58.40;;;;;;2311351;54;20897;-75
2022/07/01 01:01:33;;;;;;;0.73;0.28;;;20.20;58.40;;;;;;2320800;54;20984;-74
2022/07/01 01:04:00;;;;;;;0.77;0.30;;;20.20;58.40;;;;;;2317453;54;21400;-75
2022/07/01 01:06:26;;;;;;;0.73;0.30;;;20.20;58.30;;;;;;2317014;54;20982;-72
2022/07/01 01:08:52;;;;;;;2.55;0.30;;;20.20;58.40;;;;;;2311875;54;20984;-75
2022/07/01 01:11:19;;;;;;;0.37;0.28;;;20.20;58.40;;;;;;2347314;54;21453;-73
2022/07/01 01:13:45;;;;;;;1.23;0.20;;;20.20;58.50;;;;;;2311431;54;20949;-74
2022/07/01 01:16:21;;;;;;;0.45;0.30;;;20.20;58.40;;;;;;2456130;54;20933;-74
2022/07/01 01:18:48;;;;;;;1.98;0.35;;;20.20;58.60;;;;;;2310573;54;20921;-76
2022/07/01 01:21:14;;;;;;;0.93;0.30;;;20.10;58.20;;;;;;2310781;54;21352;-74
2022/07/01 01:23:41;;;;;;;0.98;0.40;;;20.10;58.30;;;;;;2311416;54;21604;-73
2022/07/01 01:26:20;;;;;;;0.52;0.20;;;20.10;58.40;;;;;;2363013;54;21369;-75
2022/07/01 01:28:46;;;;;;;0.28;0.20;;;20.10;58.60;;;;;;2296966;55;20945;-74
2022/07/01 01:31:13;;;;;;;1.58;0.20;;;20.10;58.40;;;;;;2485919;54;21005;-74
2022/07/01 01:33:39;;;;;;;0.40;0.20;;;20.10;58.60;;;;;;2311309;54;20902;-75
2022/07/01 01:36:09;;;;;;;2.83;0.50;;;20.10;58.70;;;;;;2470372;54;21025;-73
2022/07/01 01:38:35;;;;;;;0.50;0.20;;;20.10;58.80;;;;;;2311315;54;21009;-73
2022/07/01 01:41:03;;;;;;;1.40;0.40;;;20.10;58.90;;;;;;2328029;54;21351;-75
2022/07/01 01:43:29;;;;;;;0.68;0.35;;;20.10;58.90;;;;;;2432997;54;21478;-76
2022/07/01 01:45:56;;;;;;;0.55;0.20;;;20.10;58.80;;;;;;2311179;54;20984;-73
2022/07/01 01:48:22;;;;;;;0.93;0.30;;;20.10;58.80;;;;;;2311421;54;20885;-74
2022/07/01 01:50:48;;;;;;;0.77;0.30;;;20.10;58.80;;;;;;2489988;54;20986;-74
2022/07/01 01:53:15;;;;;;;0.60;0.30;;;20.10;58.90;;;;;;2427959;54;21505;-76
2022/07/01 01:55:42;;;;;;;0.30;0.20;;;20.10;59.00;;;;;;2464274;54;20905;-76
2022/07/01 01:58:08;;;;;;;1.15;0.40;;;20.10;59.00;;;;;;2309872;54;21021;-74
2022/07/01 02:00:35;;;;;;;0.90;0.50;;;20.10;59.00;;;;;;2426584;54;20949;-76
2022/07/01 02:03:01;;;;;;;0.88;0.30;;;20.10;59.10;;;;;;2311378;54;21466;-74
2022/07/01 02:05:28;;;;;;;1.17;0.40;;;20.10;59.20;;;;;;2444259;54;21120;-73
2022/07/01 02:07:54;;;;;;;1.10;0.30;;;20.10;59.40;;;;;;2316601;54;21436;-75
2022/07/01 02:10:21;;;;;;;2.00;0.40;;;20.10;59.40;;;;;;2413415;54;21512;-76
2022/07/01 02:12:47;;;;;;;1.42;0.50;;;20.10;59.30;;;;;;2305246;54;21218;-76
2022/07/01 02:15:14;;;;;;;1.40;0.32;;;20.10;59.40;;;;;;2440646;54;21512;-73
2022/07/01 02:17:40;;;;;;;0.98;0.40;;;20.10;59.30;;;;;;2311456;54;21068;-75
2022/07/01 02:20:08;;;;;;;0.85;0.40;;;20.20;59.40;;;;;;2384477;54;20933;-74
2022/07/01 02:22:35;;;;;;;1.52;0.40;;;20.10;59.30;;;;;;2310726;54;20945;-74
2022/07/01 02:25:01;;;;;;;1.48;0.60;;;20.20;59.40;;;;;;2406279;54;20924;-75
2022/07/01 02:27:28;;;;;;;1.02;0.40;;;20.20;59.60;;;;;;2310298;54;20941;-75
2022/07/01 02:29:54;;;;;;;1.30;0.57;;;20.20;59.70;;;;;;2315835;54;21692;-76
2022/07/01 02:32:20;;;;;;;0.90;0.40;;;20.20;59.70;;;;;;2311423;54;20973;-75
2022/07/01 02:34:47;;;;;;;0.95;0.40;;;20.20;59.70;;;;;;2469113;54;20937;-74
2022/07/01 02:37:13;;;;;;;1.15;0.40;;;20.20;59.70;;;;;;2311337;54;22088;-74
2022/07/01 02:39:40;;;;;;;1.27;0.50;;;20.20;59.60;;;;;;2311035;54;21024;-75
2022/07/01 02:44:55;;;;;;;0.65;0.35;;;20.20;59.60;;;;;;2498432;54;20925;-73
2022/07/01 02:47:21;;;;;;;1.20;0.47;;;20.20;59.60;;;;;;2311021;54;20984;-75
2022/07/01 02:49:48;;;;;;;0.47;0.30;;;20.20;59.50;;;;;;2310922;54;21505;-73
2022/07/01 02:52:15;;;;;;;0.43;0.20;;;20.20;59.50;;;;;;2317340;54;20958;-74
2022/07/01 02:54:42;;;;;;;0.77;0.32;;;20.10;59.40;;;;;;2316208;54;21057;-73
2022/07/01 02:57:08;;;;;;;0.90;0.40;;;20.20;59.50;;;;;;2392884;54;20941;-73
2022/07/01 02:59:35;;;;;;;1.48;0.40;;;20.10;59.50;;;;;;2424164;54;21312;-75
2022/07/01 03:02:01;;;;;;;1.75;0.37;;;20.10;59.60;;;;;;2314161;54;20986;-74
2022/07/01 03:04:27;;;;;;;1.35;0.40;;;20.10;59.70;;;;;;2317663;54;21356;-74
2022/07/01 03:06:55;;;;;;;0.73;0.40;;;20.20;59.80;;;;;;2310925;54;21051;-75
2022/07/01 03:09:21;;;;;;;0.95;0.37;;;20.20;59.80;;;;;;2521977;54;20957;-75
2022/07/01 03:11:48;;;;;;;1.10;0.55;;;20.20;59.90;;;;;;2338118;54;21000;-72
2022/07/01 03:14:14;;;;;;;0.45;0.30;;;20.20;59.90;;;;;;2549400;54;20941;-74
2022/07/01 03:16:41;;;;;;;1.20;0.40;;;20.20;59.80;;;;;;2311201;54;21273;-74
2022/07/01 03:19:07;;;;;;;0.40;0.25;;;20.20;59.80;;;;;;2376495;54;21377;-72
2022/07/01 03:21:34;;;;;;;1.17;0.50;;;20.10;59.60;;;;;;2355772;54;21049;-73
2022/07/01 03:24:00;;;;;;;1.27;0.43;;;20.20;59.70;;;;;;2379644;54;21465;-74
2022/07/01 03:26:27;;;;;;;1.65;0.40;;;20.10;59.60;;;;;;2310894;54;21009;-73
2022/07/01 03:28:53;;;;;;;1.15;0.50;;;20.10;59.60;;;;;;2374960;54;20926;-71
2022/07/01 03:31:19;;;;;;;1.40;0.60;;;20.10;59.80;;;;;;2311292;54;20912;-74
2022/07/01 03:33:46;;;;;;;2.15;0.52;;;20.10;60.00;;;;;;2313280;54;20985;-74
2022/07/01 03:36:13;;;;;;;1.17;0.50;;;20.10;60.10;;;;;;2311300;54;20937;-73
2022/07/01 03:38:39;;;;;;;2.03;0.45;;;20.10;60.20;;;;;;2415909;54;20986;-71
2022/07/01 03:41:06;;;;;;;0.70;0.37;;;20.10;60.30;;;;;;2311603;54;21040;-72
2022/07/01 03:43:32;;;;;;;0.93;0.50;;;20.10;60.40;;;;;;2341057;54;21017;-73
2022/07/01 03:45:59;;;;;;;2.20;0.50;;;20.10;60.50;;;;;;2300917;54;21044;-74
2022/07/01 03:48:26;;;;;;;0.93;0.40;;;20.10;60.50;;;;;;2312471;54;21379;-72
2022/07/01 03:50:52;;;;;;;1.52;0.50;;;20.10;60.60;;;;;;2315299;54;20958;-74
2022/07/01 03:56:04;;;;;;;1.87;0.50;;;20.10;60.70;;;;;;2310343;54;20953;-71
2022/07/01 03:58:31;;;;;;;1.80;0.50;;;20.10;60.70;;;;;;2311072;54;20952;-75
2022/07/01 04:00:58;;;;;;;1.33;0.52;;;20.10;60.80;;;;;;2333835;54;1297053;-74
2022/07/01 04:03:24;;;;;;;2.08;0.60;;;20.10;60.80;;;;;;2310865;54;20925;-73
2022/07/01 04:05:50;;;;;;;1.30;0.40;;;20.10;60.80;;;;;;2310281;54;20942;-75
2022/07/01 04:08:17;;;;;;;3.75;0.60;;;20.00;60.80;;;;;;2311319;54;21315;-74
2022/07/01 04:10:43;;;;;;;2.05;0.52;;;20.10;60.90;;;;;;2317916;54;20962;-74
2022/07/01 04:13:09;;;;;;;3.97;0.60;;;20.10;60.90;;;;;;2310128;54;20925;-76
2022/07/01 04:15:54;;;;;;;0.57;0.30;;;20.10;60.90;;;;;;2400040;54;20933;-73
2022/07/01 04:18:20;;;;;;;1.17;0.30;;;20.00;60.70;;;;;;2358466;54;20917;-74
2022/07/01 04:22:32;;;;;;;0.90;0.30;;;20.00;60.70;;;;;;2310913;54;20969;-74
2022/07/01 04:24:59;;;;;;;0.47;0.30;;;20.00;60.60;;;;;;2360360;54;20925;-74
2022/07/01 04:27:25;;;;;;;1.87;0.22;;;20.00;60.30;;;;;;2310573;54;20983;-74
2022/07/01 04:29:51;;;;;;;1.65;0.37;;;20.00;60.20;;;;;;2310937;54;20930;-73
2022/07/01 04:32:18;;;;;;;0.47;0.20;;;20.00;60.20;;;;;;2310943;54;20921;-73
2022/07/01 04:34:44;;;;;;;0.60;0.30;;;19.90;60.10;;;;;;2430456;54;21493;-74
2022/07/01 04:37:11;;;;;;;0.88;0.35;;;19.90;60.10;;;;;;2311831;54;20929;-73
2022/07/01 04:39:38;;;;;;;0.90;0.30;;;19.90;60.10;;;;;;2311329;54;21021;-75
2022/07/01 04:42:05;;;;;;;0.52;0.22;;;19.90;60.10;;;;;;2310179;54;20980;-73
2022/07/01 04:44:33;;;;;;;0.70;0.37;;;19.80;60.10;;;;;;2310994;54;21485;-74
2022/07/01 04:47:00;;;;;;;0.55;0.30;;;19.80;60.10;;;;;;2383385;54;20944;-73
2022/07/01 04:49:26;;;;;;;1.37;0.40;;;19.80;60.10;;;;;;2311149;54;21012;-73
2022/07/01 04:51:52;;;;;;;1.50;0.30;;;19.80;60.10;;;;;;2310955;54;20929;-74
2022/07/01 04:54:19;;;;;;;0.80;0.30;;;19.80;60.10;;;;;;2318461;54;20934;-74
2022/07/01 04:56:46;;;;;;;0.43;0.20;;;19.80;60.00;;;;;;2466552;54;20957;-73
2022/07/01 04:59:12;;;;;;;0.20;0.17;;;19.80;60.00;;;;;;2311359;54;20894;-75
2022/07/01 05:01:42;;;;;;;0.65;0.22;;;19.70;59.80;;;;;;2345254;54;21129;-72
2022/07/01 05:04:08;;;;;;;0.47;0.30;;;19.70;59.70;;;;;;2313378;53;20939;-75
2022/07/01 05:06:34;;;;;;;0.20;0.20;;;19.70;59.60;;;;;;2454303;53;20992;-76
2022/07/01 05:09:01;;;;;;;0.70;0.30;;;19.60;59.40;;;;;;2307956;54;21011;-74
2022/07/01 05:11:27;;;;;;;1.00;0.28;;;19.60;59.50;;;;;;2361426;54;21727;-74
2022/07/01 05:13:53;;;;;;;0.45;0.20;;;19.60;59.60;;;;;;2310881;54;20933;-74
2022/07/01 05:16:20;;;;;;;0.47;0.20;;;19.50;59.50;;;;;;2363428;54;20909;-74
2022/07/01 05:24:16;;;;;;;0.77;0.32;;;19.40;59.60;;;;;;2306097;54;21756;-73
2022/07/01 05:26:42;;;;;;;0.62;0.30;;;19.40;59.70;;;;;;2334705;54;20998;-72
2022/07/01 05:29:08;;;;;;;1.67;0.32;;;19.40;59.80;;;;;;2301576;54;20960;-74
2022/07/01 05:31:34;;;;;;;0.95;0.40;;;19.40;59.90;;;;;;2310357;54;20922;-73
2022/07/01 05:34:01;;;;;;;0.55;0.30;;;19.30;59.90;;;;;;2354136;54;21466;-74
2022/07/01 05:36:30;;;;;;;0.85;0.30;;;19.30;60.00;;;;;;2294347;55;21517;-74
2022/07/01 05:39:17;;;;;;;4.87;0.75;;;19.30;60.10;;;;;;2316230;54;21403;-73
2022/07/01 05:41:43;;;;;;;1.65;0.43;;;19.30;60.80;;;;;;2310709;54;21682;-74
2022/07/01 05:44:09;;;;;;;1.00;0.40;;;19.30;60.30;;;;;;2308843;54;20921;-73
2022/07/01 05:46:36;;;;;;;1.15;0.30;;;19.30;60.40;;;;;;2310349;54;20945;-73
2022/07/01 05:49:02;;;;;;;1.70;0.47;;;19.30;60.40;;;;;;2320451;54;20964;-74
2022/07/01 05:51:28;;;;;;;1.27;0.32;;;19.30;61.20;;;;;;2313075;54;20938;-73
2022/07/01 05:53:56;;;;;;;0.98;0.40;;;19.30;60.50;;;;;;2295765;54;21039;-75
2022/07/01 05:56:22;;;;;;;0.65;0.28;;;19.30;60.50;;;;;;2359351;54;20909;-74
2022/07/01 05:58:49;;;;;;;0.75;0.30;;;19.40;60.60;;;;;;2314634;54;21046;-75
2022/07/01 06:01:15;;;;;;;0.85;0.30;;;19.40;60.50;;;;;;2307704;54;20944;-74
2022/07/01 06:03:41;;;;;;;1.02;0.30;;;19.30;60.40;;;;;;2384766;54;20949;-73
2022/07/01 06:06:08;;;;;;;0.30;0.20;;;19.40;60.60;;;;;;2310849;54;21052;-75
2022/07/01 06:08:34;;;;;;;0.30;0.20;;;19.40;60.70;;;;;;2453821;54;21369;-75
2022/07/01 06:11:00;;;;;;;1.08;0.40;;;19.40;61.40;;;;;;2311122;54;21020;-77
2022/07/01 06:13:28;;;;;;;1.10;0.20;;;19.40;60.70;;;;;;2310865;54;20925;-74
2022/07/01 06:15:57;;;;;;;0.80;0.28;;;19.40;60.60;;;;;;2312798;54;21293;-75
2022/07/01 06:18:23;;;;;;;0.50;0.30;;;19.40;60.60;;;;;;2314405;54;20986;-74
2022/07/01 06:20:50;;;;;;;1.42;0.50;;;19.40;60.60;;;;;;2306632;54;20980;-74
2022/07/01 06:23:16;;;;;;;1.10;0.40;;;19.40;60.60;;;;;;2303147;54;21983;-74
2022/07/01 06:25:43;;;;;;;2.28;0.40;;;19.40;60.70;;;;;;2313705;54;20945;-73
2022/07/01 06:28:09;;;;;;;0.30;0.20;;;19.50;60.80;;;;;;2316958;54;21573;-74
2022/07/01 06:30:35;;;;;;;0.80;0.22;;;19.50;60.80;;;;;;2312565;54;21223;-75
2022/07/01 06:33:01;;;;;;;0.70;0.30;;;19.50;60.80;;;;;;2311247;54;21009;-76
2022/07/01 06:35:28;;;;;;;0.80;0.30;;;19.50;60.80;;;;;;2502233;54;21009;-73
2022/07/01 06:37:54;;;;;;;1.62;0.32;;;19.40;60.70;;;;;;2312455;54;21004;-76
2022/07/01 06:40:22;;;;;;;0.73;0.30;;;19.50;60.80;;;;;;2311688;54;21029;-75
2022/07/01 06:42:49;;;;;;;0.43;0.20;;;19.50;60.90;;;;;;2316756;54;21039;-75
2022/07/01 06:45:16;;;;;;;0.93;0.32;;;19.50;60.90;;;;;;2380072;54;21541;-73
2022/07/01 06:47:42;;;;;;;0.40;0.20;;;19.50;60.90;;;;;;2305200;54;20945;-77
2022/07/01 06:50:08;;;;;;;2.10;0.20;;;19.50;60.90;;;;;;2322259;54;21309;-76
2022/07/01 06:52:35;;;;;;;0.32;0.17;;;19.50;60.90;;;;;;2302437;54;21554;-73
2022/07/01 06:55:01;;;;;;;0.52;0.20;;;19.50;60.90;;;;;;2387683;54;20953;-72
2022/07/01 06:57:27;;;;;;;0.80;0.30;;;19.50;60.80;;;;;;2311217;54;20910;-74
2022/07/01 06:59:54;;;;;;;0.57;0.20;;;19.50;60.90;;;;;;2310921;54;20945;-73
2022/07/01 07:02:20;;;;;;;0.50;0.20;;;19.50;61.00;;;;;;2448333;54;21490;-73
2022/07/01 07:04:48;;;;;;;0.43;0.20;;;19.50;61.00;;;;;;2381418;54;20962;-74
2022/07/01 07:07:24;;;;;;;0.82;0.20;;;19.50;61.00;;;;;;2304268;54;21004;-75
2022/07/01 07:09:51;;;;;;;0.20;0.20;;;19.50;60.90;;;;;;2313567;54;21356;-73
2022/07/01 07:12:17;;;;;;;0.47;0.20;;;19.50;60.90;;;;;;2321091;54;21037;-74
2022/07/01 07:14:43;;;;;;;0.80;0.30;;;19.50;60.90;;;;;;2331265;54;20993;-71
2022/07/01 07:17:09;;;;;;;1.17;0.20;;;19.50;61.00;;;;;;2315652;54;20985;-72
2022/07/01 07:19:36;;;;;;;1.37;0.40;;;19.50;61.00;;;;;;2309226;54;20913;-74
2022/07/01 07:22:03;;;;;;;0.75;0.30;;;19.50;61.00;;;;;;2310178;54;20941;-73
2022/07/01 07:24:30;;;;;;;0.95;0.37;;;19.50;61.00;;;;;;2313489;54;21004;-74
2022/07/01 07:26:56;;;;;;;0.70;0.35;;;19.50;61.00;;;;;;2312628;54;21108;-76
2022/07/01 07:29:22;;;;;;;0.37;0.25;;;19.50;61.10;;;;;;2310209;54;20981;-74
2022/07/01 07:31:49;;;;;;;0.95;0.47;;;19.60;61.20;;;;;;2310441;54;20991;-75
2022/07/01 07:34:15;;;;;;;0.35;0.20;;;19.50;61.10;;;;;;2310595;54;21344;-76
2022/07/01 07:36:42;;;;;;;0.60;0.30;;;19.50;61.20;;;;;;2310160;54;21017;-73
2022/07/01 07:39:08;;;;;;;0.50;0.30;;;19.60;61.30;;;;;;2308089;54;21068;-74
2022/07/01 07:41:34;;;;;;;0.32;0.20;;;19.50;61.30;;;;;;2310204;54;20988;-73
2022/07/01 07:44:00;;;;;;;0.73;0.30;;;19.50;61.30;;;;;;2319259;54;20958;-73
2022/07/01 07:46:27;;;;;;;1.40;0.30;;;19.60;61.40;;;;;;2311729;54;20918;-73
2022/07/01 07:48:54;;;;;;;0.93;0.30;;;19.50;61.30;;;;;;2310388;54;20925;-74
2022/07/01 07:51:22;;;;;;;1.33;0.40;;;19.60;61.50;;;;;;2310961;54;21471;-73
2022/07/01 07:53:51;;;;;;;0.62;0.20;;;19.60;61.50;;;;;;2310327;54;21584;-74
2022/07/01 07:56:18;;;;;;;0.17;0.17;;;19.60;61.50;;;;;;2399327;54;21009;-74
2022/07/01 07:58:44;;;;;;;1.40;0.40;;;19.60;61.60;;;;;;2458158;54;20929;-74
2022/07/01 08:01:11;;;;;;;0.88;0.30;;;19.70;61.80;;;;;;2311263;54;21363;-77
2022/07/01 08:03:37;;;;;;;0.43;0.20;;;19.70;61.80;;;;;;2312034;54;21494;-74
2022/07/01 08:06:03;;;;;;;0.50;0.25;;;19.70;61.80;;;;;;2310299;54;20993;-76
2022/07/01 08:08:30;;;;;;;0.70;0.30;;;19.70;61.70;;;;;;2311209;54;21335;-74
2022/07/01 08:10:56;;;;;;;2.28;0.40;;;19.80;61.90;;;;;;2310958;54;20919;-73
2022/07/01 08:13:23;;;;;;;0.82;0.32;;;19.80;61.80;;;;;;2386613;54;21121;-74
2022/07/01 08:15:49;;;;;;;0.77;0.40;;;19.80;61.80;;;;;;2308754;54;20957;-73
2022/07/01 08:18:15;;;;;;;0.30;0.20;;;19.90;61.80;;;;;;2376028;54;20980;-74
2022/07/01 08:20:42;;;;;;;3.00;0.28;;;19.90;62.50;;;;;;2313723;54;20994;-74
2022/07/01 08:23:08;;;;;;;0.25;0.20;;;19.90;61.80;;;;;;2339683;54;20953;-74
2022/07/01 08:25:35;;;;;;;0.50;0.30;;;19.90;61.80;;;;;;2311665;54;20997;-74
2022/07/01 08:28:02;;;;;;;0.57;0.28;;;20.00;61.80;;;;;;2427522;54;20933;-76
2022/07/01 08:30:28;;;;;;;0.45;0.20;;;20.00;61.90;;;;;;2296754;55;20993;-75
2022/07/01 08:32:54;;;;;;;0.80;0.30;;;20.00;61.80;;;;;;2310860;54;20890;-76
2022/07/01 08:35:21;;;;;;;0.35;0.20;;;20.10;61.90;;;;;;2321945;54;21422;-73
2022/07/01 08:37:47;;;;;;;0.50;0.30;;;20.10;61.80;;;;;;2311122;54;21470;-77
2022/07/01 08:40:13;;;;;;;0.50;0.30;;;20.10;61.70;;;;;;2311058;54;20929;-74
2022/07/01 08:42:40;;;;;;;0.47;0.20;;;20.20;61.70;;;;;;2341598;54;21553;-74
2022/07/01 08:45:07;;;;;;;1.75;0.40;;;20.20;61.60;;;;;;2310978;54;20926;-77
2022/07/01 08:47:33;;;;;;;0.77;0.25;;;20.30;61.60;;;;;;2312375;54;21561;-74
2022/07/01 08:50:01;;;;;;;1.65;0.20;;;20.30;61.60;;;;;;2311039;54;20929;-74
2022/07/01 08:52:28;;;;;;;0.52;0.30;;;20.30;61.40;;;;;;2311501;54;21399;-74
2022/07/01 08:54:55;;;;;;;0.10;0.10;;;20.30;61.30;;;;;;2311940;54;20953;-74
2022/07/01 08:57:21;;;;;;;0.55;0.20;;;20.40;61.20;;;;;;2311021;54;21345;-77
2022/07/01 09:00:00;;;;;;;0.52;0.17;;;20.40;61.20;;;;;;2452516;54;21387;-75
2022/07/01 09:02:28;;;;;;;1.73;0.57;;;20.40;61.30;;;;;;2310526;54;20997;-75
2022/07/01 09:05:15;;;;;;;1.20;0.32;;;20.40;61.20;;;;;;2320773;54;21021;-76
2022/07/01 09:07:42;;;;;;;0.73;0.30;;;20.40;61.30;;;;;;2311145;54;21487;-74
2022/07/01 09:10:18;;;;;;;1.33;0.40;;;20.50;61.30;;;;;;2290166;55;20980;-77
2022/07/01 09:12:47;;;;;;;0.30;0.30;;;20.50;62.10;;;;;;2310014;54;20980;-80
2022/07/01 09:16:15;;;;;;;1.02;0.50;;;20.60;61.60;;;;;;2314908;54;21006;-74
2022/07/01 09:19:02;;;;;;;0.50;0.20;;;20.60;61.90;;;;;;2317991;54;21013;-76
2022/07/01 09:21:31;;;;;;;0.82;0.32;;;20.60;61.70;;;;;;2311833;54;21798;-75
2022/07/01 09:25:19;;;;;;;1.55;0.30;;;20.70;61.50;;;;;;2311152;54;20989;-74
2022/07/01 09:27:47;;;;;;;0.98;0.30;;;20.80;61.50;;;;;;2313995;54;21540;-74
2022/07/01 09:30:13;;;;;;;1.12;0.37;;;20.80;61.00;;;;;;2320349;54;21059;-73
2022/07/01 09:32:39;;;;;;;2.08;0.40;;;20.90;61.10;;;;;;2328394;54;20945;-75
2022/07/01 09:35:06;;;;;;;0.95;0.32;;;20.90;61.10;;;;;;2382949;54;20949;-76
2022/07/01 09:37:34;;;;;;;1.02;0.40;;;21.00;61.20;;;;;;2494754;54;21001;-74
2022/07/01 09:40:00;;;;;;;0.75;0.35;;;21.00;60.90;;;;;;2316286;54;21375;-75
2022/07/01 09:42:27;;;;;;;1.25;0.40;;;21.00;60.70;;;;;;2312889;54;20957;-76
2022/07/01 09:45:02;;;;;;;1.02;0.40;;;21.10;60.70;;;;;;2415977;54;20938;-78
2022/07/01 09:47:30;;;;;;;0.82;0.30;;;21.10;60.40;;;;;;2312453;54;21669;-74
2022/07/01 09:49:57;;;;;;;1.25;0.37;;;21.20;60.30;;;;;;2310985;54;20941;-75
2022/07/01 09:52:23;;;;;;;0.90;0.40;;;21.20;60.10;;;;;;2310921;54;20993;-75
2022/07/01 09:54:50;;;;;;;1.00;0.40;;;21.20;59.90;;;;;;2521610;54;21009;-73
2022/07/01 09:57:17;;;;;;;0.60;0.22;;;21.20;59.90;;;;;;2350654;54;20961;-76
2022/07/01 09:59:43;;;;;;;1.10;0.20;;;21.20;59.90;;;;;;2329678;54;20975;-74
2022/07/01 10:02:10;;;;;;;0.60;0.35;;;21.20;59.70;;;;;;2387501;54;20961;-75
2022/07/01 10:04:46;;;;;;;0.93;0.30;;;21.20;59.60;;;;;;2359201;54;20925;-75
2022/07/01 10:07:31;;;;;;;0.20;0.20;;;21.20;59.60;;;;;;2316715;54;21404;-76
2022/07/01 10:10:59;;;;;;;0.45;0.30;;;21.20;59.80;;;;;;2311847;54;20929;-77
2022/07/01 10:13:26;;;;;;;1.83;0.50;;;21.20;59.70;;;;;;2369213;54;21522;-75
2022/07/01 10:15:53;;;;;;;0.73;0.25;;;21.20;59.60;;;;;;2330054;54;20980;-74
2022/07/01 10:18:24;;;;;;;0.77;0.30;;;21.20;59.70;;;;;;2310776;54;21076;-75
2022/07/01 10:20:50;;;;;;;1.23;0.50;;;21.20;59.80;;;;;;2319429;54;20922;-74
2022/07/01 10:23:20;;;;;;;0.73;0.30;;;21.20;59.90;;;;;;2303697;54;21418;-77
2022/07/01 10:26:01;;;;;;;0.45;0.22;;;21.20;59.90;;;;;;2535860;54;21484;-75
2022/07/01 10:28:29;;;;;;;0.77;0.30;;;21.30;60.00;;;;;;2332699;54;20958;-78
2022/07/01 10:31:05;;;;;;;1.35;0.35;;;21.20;59.90;;;;;;2528773;54;21046;-74
2022/07/01 10:33:43;;;;;;;0.88;0.30;;;21.30;60.10;;;;;;2317134;54;21050;-73
2022/07/01 10:36:18;;;;;;;0.60;0.30;;;21.30;60.20;;;;;;2313683;54;20949;-76
2022/07/01 10:45:53;;;;;;;0.80;0.30;;;21.30;60.30;;;;;;2358325;54;20978;-75
2022/07/01 10:48:23;;;;;;;1.08;0.20;;;21.50;60.60;;;;;;2448707;54;20957;-76
2022/07/01 10:50:50;;;;;;;0.60;0.30;;;21.60;60.70;;;;;;2309872;54;20957;-74
2022/07/01 10:53:17;;;;;;;0.62;0.30;;;21.60;60.80;;;;;;2549604;54;21442;-75
2022/07/01 10:55:53;;;;;;;0.68;0.30;;;21.60;61.00;;;;;;2410338;54;20917;-75
2022/07/01 10:58:38;;;;;;;1.30;0.32;;;21.70;61.10;;;;;;2310739;54;20965;-75
2022/07/01 11:01:05;;;;;;;1.07;0.50;;;21.80;60.90;;;;;;2310917;54;20921;-73
2022/07/01 11:03:35;;;;;;;1.55;0.50;;;21.90;61.00;;;;;;2316071;54;21413;-76
2022/07/01 11:06:02;;;;;;;0.55;0.30;;;21.90;60.70;;;;;;2348235;54;21026;-76
2022/07/01 11:08:28;;;;;;;1.27;0.40;;;22.00;60.60;;;;;;2331617;54;20937;-74
2022/07/01 11:10:58;;;;;;;0.80;0.30;;;22.00;60.10;;;;;;2342685;54;21430;-76
2022/07/01 11:13:26;;;;;;;0.90;0.30;;;22.10;60.00;;;;;;2318525;54;20954;-74
2022/07/01 11:15:52;;;;;;;1.02;0.50;;;22.10;59.90;;;;;;2318071;54;21531;-75
2022/07/01 11:18:20;;;;;;;1.37;0.37;;;22.20;59.90;;;;;;2312278;54;21521;-75
2022/07/01 11:20:46;;;;;;;0.75;0.35;;;22.20;59.60;;;;;;2311809;54;21447;-75
2022/07/01 11:23:12;;;;;;;0.52;0.30;;;22.30;59.60;;;;;;2311398;54;20996;-75
2022/07/01 11:25:39;;;;;;;0.57;0.30;;;22.30;59.40;;;;;;2339707;54;21511;-76
2022/07/01 11:28:05;;;;;;;0.65;0.30;;;22.40;59.20;;;;;;2334922;54;20994;-75
2022/07/01 11:30:32;;;;;;;0.82;0.28;;;22.40;59.20;;;;;;2310860;54;20957;-77
2022/07/01 11:32:58;;;;;;;0.47;0.20;;;22.40;59.10;;;;;;2351782;54;21311;-75
2022/07/01 11:41:18;;;;;;;0.43;0.20;;;22.50;58.90;;;;;;2323253;54;20966;-75
2022/07/01 11:43:44;;;;;;;1.67;0.30;;;22.60;58.70;;;;;;2430204;54;21444;-75
2022/07/01 11:46:11;;;;;;;0.62;0.30;;;22.60;58.70;;;;;;2310511;54;20961;-73
2022/07/01 11:48:51;;;;;;;0.73;0.30;;;22.60;58.60;;;;;;2450733;54;21552;-76
2022/07/01 11:51:22;;;;;;;0.57;0.28;;;22.70;58.00;;;;;;2310879;54;21332;-74
2022/07/01 11:53:50;;;;;;;0.45;0.20;;;22.70;58.10;;;;;;2364556;54;21000;-74
2022/07/01 11:56:34;;;;;;;0.73;0.30;;;22.70;57.90;;;;;;2447847;54;21032;-74
2022/07/01 11:59:01;;;;;;;0.88;0.35;;;22.80;57.40;;;;;;2352061;54;21253;-75
2022/07/01 12:01:34;;;;;;;0.95;0.40;;;22.80;57.70;;;;;;2310892;54;21399;-74
2022/07/01 12:04:02;;;;;;;0.65;0.35;;;22.80;57.50;;;;;;2310319;54;20972;-76
2022/07/01 12:06:29;;;;;;;0.75;0.30;;;22.80;57.40;;;;;;2315513;54;20938;-74
2022/07/01 12:08:56;;;;;;;0.82;0.40;;;22.80;57.50;;;;;;2309274;54;21327;-74
2022/07/01 12:11:23;;;;;;;0.60;0.30;;;22.80;57.50;;;;;;2309264;54;21389;-75
2022/07/01 12:13:50;;;;;;;2.17;0.30;;;22.90;57.40;;;;;;2395679;54;20934;-75
2022/07/01 12:16:16;;;;;;;1.00;0.30;;;22.90;57.40;;;;;;2312232;54;21433;-74
2022/07/01 12:19:02;;;;;;;1.10;0.30;;;22.90;57.50;;;;;;2450623;54;21521;-74
2022/07/01 12:21:30;;;;;;;1.15;0.50;;;23.00;57.80;;;;;;2314501;54;21047;-73
2022/07/01 12:24:12;;;;;;;0.40;0.22;;;23.00;57.80;;;;;;2315626;54;20933;-74
2022/07/01 12:27:21;;;;;;;;;;;23.10;57.70;;;;;;2313977;54;20917;-74
2022/07/01 12:29:54;;;;;;;0.30;0.20;;;23.10;57.80;;;;;;2310407;54;20131;-74
2022/07/01 12:32:24;;;;;;;0.45;0.30;;;23.20;57.50;;;;;;2310766;54;20949;-74
2022/07/01 12:34:55;;;;;;;1.45;0.50;;;23.20;57.60;;;;;;2314200;54;20917;-74
2022/07/01 12:37:33;;;;;;;0.65;0.30;;;23.20;57.50;;;;;;2311197;54;20994;-74
2022/07/01 12:40:04;;;;;;;0.43;0.28;;;23.30;57.40;;;;;;2537570;54;20962;-75
2022/07/01 12:42:42;;;;;;;0.47;0.30;;;23.30;57.40;;;;;;2317547;54;20966;-75
2022/07/01 12:45:11;;;;;;;1.02;0.30;;;23.30;57.50;;;;;;2316739;53;21004;-75
2022/07/01 12:47:44;;;;;;;0.82;0.40;;;23.40;57.80;;;;;;2343983;54;20994;-74
2022/07/01 12:50:19;;;;;;;0.98;0.32;;;23.40;57.70;;;;;;2332545;54;20949;-73
2022/07/01 12:54:38;;;;;;;0.65;0.40;;;23.50;57.70;;;;;;2317598;54;20977;-77
2022/07/01 12:57:05;;;;;;;0.47;0.25;;;23.60;57.50;;;;;;2440936;54;21430;-75
2022/07/01 12:59:31;;;;;;;0.70;0.32;;;23.60;57.60;;;;;;2311594;54;21315;-77
2022/07/01 13:02:00;;;;;;;0.77;0.40;;;23.70;57.20;;;;;;2354482;54;20928;-75
2022/07/01 13:04:27;;;;;;;0.80;0.32;;;23.70;57.10;;;;;;2299126;55;21086;-75
2022/07/01 13:06:54;;;;;;;0.57;0.30;;;23.80;56.90;;;;;;2371079;54;20993;-75
2022/07/01 13:09:21;;;;;;;1.08;0.40;;;23.80;56.90;;;;;;2367971;54;20961;-73
2022/07/01 13:11:47;;;;;;;1.17;0.60;;;23.90;57.00;;;;;;2522785;54;20988;-75
2022/07/01 13:14:13;;;;;;;1.17;0.40;;;23.90;56.80;;;;;;2311431;54;20949;-75
2022/07/01 13:16:40;;;;;;;0.80;0.30;;;24.00;56.80;;;;;;2390168;54;21005;-77
2022/07/01 13:19:06;;;;;;;0.50;0.30;;;24.10;56.60;;;;;;2310766;54;20950;-73
2022/07/01 13:21:33;;;;;;;1.08;0.30;;;24.10;56.30;;;;;;2311266;54;20985;-74